createdAt,value
2018-04-06T00:02:04.885Z,98776.93
2018-04-06T00:04:33.290Z,98775.03
2018-04-06T00:07:01.784Z,98771.14
2018-04-06T00:09:30.537Z,98773.98
2018-04-06T00:12:00.613Z,98778.30
2018-04-06T00:14:29.493Z,98777.00
2018-04-06T00:16:58.393Z,98773.73
2018-04-06T00:19:26.742Z,98779.05
2018-04-06T00:21:56.102Z,98772.88
2018-04-06T00:24:24.685Z,98772.14
2018-04-06T00:26:53.489Z,98772.52
2018-04-06T00:29:22.372Z,98776.55
2018-04-06T00:31:51.465Z,98778.56
2018-04-06T00:34:20.585Z,98781.05
2018-04-06T00:36:48.861Z,98787.59
2018-04-06T00:39:17.156Z,98784.13
2018-04-06T00:41:45.673Z,98781.63
2018-04-06T00:44:14.573Z,98787.48
2018-04-06T00:46:42.854Z,98792.17
2018-04-06T00:49:11.173Z,98782.36
2018-04-06T00:51:39.607Z,98772.83
2018-04-06T00:54:08.591Z,98772.00
2018-04-06T00:56:37.792Z,98771.69
2018-04-06T00:59:06.072Z,98775.63
2018-04-06T01:01:35.669Z,98776.12
2018-04-06T01:04:04.001Z,98764.36
2018-04-06T01:06:32.362Z,98759.84
2018-04-06T01:09:00.890Z,98766.27
2018-04-06T01:11:29.787Z,98760.78
2018-04-06T01:13:58.870Z,98758.37
2018-04-06T01:16:27.316Z,98760.02
2018-04-06T01:18:55.697Z,98762.42
2018-04-06T01:21:24.040Z,98761.19
2018-04-06T01:23:52.958Z,98757.81
2018-04-06T01:26:23.345Z,98761.34
2018-04-06T01:28:51.964Z,98756.58
2018-04-06T01:31:22.062Z,98761.59
2018-04-06T01:33:51.028Z,98760.27
2018-04-06T01:36:19.461Z,98759.63
2018-04-06T01:38:47.922Z,98760.47
2018-04-06T01:41:17.224Z,98765.36
2018-04-06T01:43:45.749Z,98767.20
2018-04-06T01:46:14.169Z,98757.33
2018-04-06T01:48:42.504Z,98758.34
2018-04-06T01:51:11.385Z,98755.30
2018-04-06T01:53:40.655Z,98757.56
2018-04-06T01:56:10.436Z,98754.05
2018-04-06T01:58:38.723Z,98753.45
2018-04-06T02:01:07.013Z,98749.09
2018-04-06T02:03:35.346Z,98748.66
2018-04-06T02:06:05.131Z,98747.74
2018-04-06T02:08:34.888Z,98745.71
2018-04-06T02:11:03.224Z,98748.41
2018-04-06T02:13:32.263Z,98741.36
2018-04-06T02:16:00.908Z,98748.98
2018-04-06T02:18:31.463Z,98748.00
2018-04-06T02:21:00.042Z,98745.98
2018-04-06T02:23:28.723Z,98746.37
2018-04-06T02:25:57.009Z,98750.76
2018-04-06T02:28:25.628Z,98746.91
2018-04-06T02:30:53.912Z,98743.20
2018-04-06T02:33:22.198Z,98755.16
2018-04-06T02:35:51.937Z,98751.29
2018-04-06T02:38:20.558Z,98746.34
2018-04-06T02:40:49.400Z,98747.45
2018-04-06T02:43:18.203Z,98751.29
2018-04-06T02:45:46.540Z,98753.17
2018-04-06T02:48:14.982Z,98756.02
2018-04-06T02:50:43.264Z,98748.47
2018-04-06T02:53:11.551Z,98747.84
2018-04-06T02:55:41.379Z,98750.75
2018-04-06T02:58:10.604Z,98747.76
2018-04-06T03:00:38.914Z,98747.67
2018-04-06T03:03:07.293Z,98746.43
2018-04-06T03:05:37.258Z,98749.11
2018-04-06T03:08:05.550Z,98740.53
2018-04-06T03:10:34.504Z,98737.98
2018-04-06T03:13:02.788Z,98739.98
2018-04-06T03:15:31.081Z,98733.98
2018-04-06T03:18:00.808Z,98726.75
2018-04-06T03:20:29.916Z,98729.53
2018-04-06T03:23:00.145Z,98733.09
2018-04-06T03:25:28.462Z,98734.98
2018-04-06T03:27:57.052Z,98732.53
2018-04-06T03:30:27.109Z,98735.70
2018-04-06T03:32:56.155Z,98739.12
2018-04-06T03:35:24.451Z,98736.07
2018-04-06T03:37:53.853Z,98736.39
2018-04-06T03:40:22.944Z,98727.31
2018-04-06T03:42:52.541Z,98729.20
2018-04-06T03:45:20.854Z,98731.72
2018-04-06T03:47:49.253Z,98735.45
2018-04-06T03:50:17.559Z,98728.84
2018-04-06T03:52:45.880Z,98727.23
2018-04-06T03:55:14.181Z,98732.30
2018-04-06T03:57:43.328Z,98727.36
2018-04-06T04:00:11.627Z,98724.77
2018-04-06T04:02:39.929Z,98723.84
2018-04-06T04:05:10.013Z,98729.55
2018-04-06T04:07:39.552Z,98720.37
2018-04-06T04:10:08.829Z,98715.48
2018-04-06T04:12:37.938Z,98720.30
2018-04-06T04:15:06.856Z,98725.36
2018-04-06T04:17:35.152Z,98725.69
2018-04-06T04:20:03.520Z,98728.12
2018-04-06T04:22:32.125Z,98724.12
2018-04-06T04:25:00.412Z,98725.11
2018-04-06T04:27:29.137Z,98721.38
2018-04-06T04:29:57.629Z,98726.31
2018-04-06T04:32:26.736Z,98721.77
2018-04-06T04:34:55.680Z,98723.59
2018-04-06T04:37:23.988Z,98720.36
2018-04-06T04:39:53.055Z,98727.70
2018-04-06T04:42:21.477Z,98728.12
2018-04-06T04:44:49.794Z,98726.04
2018-04-06T04:47:19.386Z,98722.34
2018-04-06T04:49:47.901Z,98719.05
2018-04-06T04:52:16.193Z,98719.08
2018-04-06T04:54:44.612Z,98719.20
2018-04-06T04:57:12.918Z,98718.00
2018-04-06T04:59:41.304Z,98715.03
2018-04-06T05:02:10.149Z,98716.27
2018-04-06T05:04:39.244Z,98712.08
2018-04-06T05:07:08.191Z,98720.52
2018-04-06T05:09:37.025Z,98716.58
2018-04-06T05:12:05.337Z,98717.44
2018-04-06T05:14:33.633Z,98713.33
2018-04-06T05:17:02.784Z,98717.06
2018-04-06T05:19:32.040Z,98714.66
2018-04-06T05:22:00.402Z,98711.13
2018-04-06T05:24:28.750Z,98713.25
2018-04-06T05:26:57.013Z,98718.90
2018-04-06T05:29:25.792Z,98722.29
2018-04-06T05:31:56.456Z,98715.86
2018-04-06T05:34:24.801Z,98713.78
2018-04-06T05:36:53.103Z,98719.14
2018-04-06T05:39:22.210Z,98725.47
2018-04-06T05:41:50.533Z,98725.28
2018-04-06T05:44:18.813Z,98722.35
2018-04-06T05:46:47.097Z,98721.37
2018-04-06T05:49:16.201Z,98713.46
2018-04-06T05:51:45.256Z,98718.56
2018-04-06T05:54:13.540Z,98730.25
2018-04-06T05:56:41.861Z,98727.16
2018-04-06T05:59:10.160Z,98721.30
2018-04-06T06:01:38.500Z,98725.10
2018-04-06T06:04:06.800Z,98725.48
2018-04-06T06:06:35.109Z,98723.73
2018-04-06T06:09:03.453Z,98725.84
2018-04-06T06:11:31.757Z,98725.86
2018-04-06T06:14:00.057Z,98725.14
2018-04-06T06:16:28.388Z,98722.15
2018-04-06T06:18:56.677Z,98720.12
2018-04-06T06:21:24.957Z,98714.81
2018-04-06T06:23:53.276Z,98718.76
2018-04-06T06:26:21.574Z,98714.55
2018-04-06T06:28:51.049Z,98717.29
2018-04-06T06:31:19.384Z,98713.41
2018-04-06T06:33:47.665Z,98716.80
2018-04-06T06:36:15.959Z,98714.90
2018-04-06T06:38:44.582Z,98715.02
2018-04-06T06:41:12.873Z,98713.70
2018-04-06T06:43:41.943Z,98711.98
2018-04-06T06:46:10.306Z,98707.69
2018-04-06T06:48:38.612Z,98713.66
2018-04-06T06:51:12.557Z,98715.78
2018-04-06T06:53:40.857Z,98712.67
2018-04-06T06:56:09.152Z,98714.31
2018-04-06T06:58:37.497Z,98715.31
2018-04-06T07:01:05.785Z,98709.48
2018-04-06T07:03:34.078Z,98714.22
2018-04-06T07:06:02.508Z,98706.39
2018-04-06T07:08:30.552Z,98706.19
2018-04-06T07:10:58.843Z,98709.66
2018-04-06T07:13:27.169Z,98707.39
2018-04-06T07:15:55.465Z,98708.78
2018-04-06T07:18:23.781Z,98703.47
2018-04-06T07:20:52.964Z,98704.35
2018-04-06T07:23:21.276Z,98704.20
2018-04-06T07:25:49.593Z,98700.44
2018-04-06T07:28:17.885Z,98704.09
2018-04-06T07:30:45.860Z,98705.41
2018-04-06T07:33:14.226Z,98704.15
2018-04-06T07:35:42.525Z,98696.33
2018-04-06T07:38:10.812Z,98695.98
2018-04-06T07:40:39.917Z,98699.67
2018-04-06T07:43:08.968Z,98699.13
2018-04-06T07:45:37.259Z,98694.92
2018-04-06T07:48:05.607Z,98701.16
2018-04-06T07:50:33.896Z,98690.30
2018-04-06T07:53:02.185Z,98691.57
2018-04-06T07:55:30.502Z,98688.83
2018-04-06T07:57:58.797Z,98691.66
2018-04-06T08:00:27.160Z,98691.02
2018-04-06T08:02:55.453Z,98687.70
2018-04-06T08:05:23.744Z,98684.44
2018-04-06T08:07:52.072Z,98678.64
2018-04-06T08:10:20.377Z,98677.25
2018-04-06T08:12:48.680Z,98679.56
2018-04-06T08:15:17.004Z,98670.92
2018-04-06T08:17:46.057Z,98677.64
2018-04-06T08:20:14.362Z,98674.98
2018-04-06T08:22:42.709Z,98676.49
2018-04-06T08:25:11.009Z,98668.22
2018-04-06T08:27:39.064Z,98666.74
2018-04-06T08:30:07.180Z,98666.75
2018-04-06T08:32:35.509Z,98666.82
2018-04-06T08:35:03.795Z,98668.38
2018-04-06T08:37:32.084Z,98663.92
2018-04-06T08:40:00.408Z,98662.08
2018-04-06T08:42:28.835Z,98662.18
2018-04-06T08:44:57.136Z,98663.55
2018-04-06T08:47:25.445Z,98649.98
2018-04-06T08:49:53.740Z,98655.09
2018-04-06T08:52:22.168Z,98644.81
2018-04-06T08:54:50.482Z,98642.80
2018-04-06T08:57:19.517Z,98641.84
2018-04-06T08:59:47.854Z,98639.92
2018-04-06T09:02:16.149Z,98627.07
2018-04-06T09:04:44.490Z,98631.70
2018-04-06T09:07:12.902Z,98635.42
2018-04-06T09:09:41.201Z,98623.39
2018-04-06T09:12:09.488Z,98627.11
2018-04-06T09:14:37.830Z,98622.97
2018-04-06T09:17:06.125Z,98623.94
2018-04-06T09:19:35.177Z,98625.62
2018-04-06T09:22:03.492Z,98624.20
2018-04-06T09:24:31.778Z,98621.45
2018-04-06T09:27:00.054Z,98618.63
2018-04-06T09:29:28.377Z,98612.59
2018-04-06T09:31:57.433Z,98607.89
2018-04-06T09:34:25.728Z,98605.11
2018-04-06T09:36:54.072Z,98598.37
2018-04-06T09:39:22.372Z,98609.44
2018-04-06T09:41:50.742Z,98601.50
2018-04-06T09:44:19.096Z,98591.39
2018-04-06T09:46:47.385Z,98593.75
2018-04-06T09:49:15.676Z,98585.80
2018-04-06T09:51:44.093Z,98589.41
2018-04-06T09:54:13.146Z,98578.56
2018-04-06T09:56:41.449Z,98570.42
2018-04-06T09:59:09.773Z,98582.00
2018-04-06T10:01:38.068Z,98572.95
2018-04-06T10:04:06.352Z,98578.48
2018-04-06T10:06:34.660Z,98569.50
2018-04-06T10:09:02.941Z,98556.78
2018-04-06T10:11:31.289Z,98555.09
2018-04-06T10:13:59.568Z,98564.32
2018-04-06T10:16:27.870Z,98555.33
2018-04-06T10:18:56.281Z,98557.06
2018-04-06T10:21:24.584Z,98549.77
2018-04-06T10:23:52.883Z,98535.67
2018-04-06T10:26:21.281Z,98533.05
2018-04-06T10:28:49.584Z,98532.66
2018-04-06T10:31:17.897Z,98540.16
2018-04-06T10:33:47.015Z,98530.97
2018-04-06T10:36:15.802Z,98527.09
2018-04-06T10:38:44.596Z,98521.81
2018-04-06T10:41:13.221Z,98530.37
2018-04-06T10:43:41.513Z,98524.17
2018-04-06T10:46:10.108Z,98517.80
2018-04-06T10:48:38.703Z,98510.53
2018-04-06T10:51:07.015Z,98497.92
2018-04-06T10:53:36.086Z,98514.31
2018-04-06T10:56:06.349Z,98509.12
2018-04-06T10:58:34.659Z,98511.67
2018-04-06T11:01:02.966Z,98502.27
2018-04-06T11:03:31.613Z,98485.76
2018-04-06T11:05:59.901Z,98491.88
2018-04-06T11:08:28.209Z,98491.64
2018-04-06T11:10:56.568Z,98488.61
2018-04-06T11:13:25.409Z,98482.80
2018-04-06T11:15:54.466Z,98488.06
2018-04-06T11:18:22.753Z,98484.13
2018-04-06T11:20:51.485Z,98489.84
2018-04-06T11:23:20.537Z,98478.20
2018-04-06T11:25:49.352Z,98488.16
2018-04-06T11:28:17.996Z,98471.62
2018-04-06T11:30:46.932Z,98470.12
2018-04-06T11:33:16.013Z,98469.63
2018-04-06T11:35:44.332Z,98470.92
2018-04-06T11:38:12.618Z,98472.14
2018-04-06T11:40:40.914Z,98460.39
2018-04-06T11:43:09.813Z,98461.89
2018-04-06T11:45:38.250Z,98458.84
2018-04-06T11:48:08.766Z,98460.63
2018-04-06T11:50:38.005Z,98463.33
2018-04-06T11:53:06.729Z,98470.36
2018-04-06T11:55:36.081Z,98453.49
2018-04-06T11:58:05.985Z,98444.13
2018-04-06T12:00:34.308Z,98441.58
2018-04-06T12:03:02.609Z,98436.61
2018-04-06T12:05:31.665Z,98440.77
2018-04-06T12:08:00.023Z,98427.42
2018-04-06T12:10:29.160Z,98429.53
2018-04-06T12:12:57.657Z,98421.89
2018-04-06T12:15:26.713Z,98428.44
2018-04-06T12:17:55.002Z,98409.10
2018-04-06T12:20:23.733Z,98419.24
2018-04-06T12:22:52.170Z,98408.34
2018-04-06T12:25:20.458Z,98402.92
2018-04-06T12:27:48.753Z,98394.61
2018-04-06T12:30:17.181Z,98395.00
2018-04-06T12:32:45.466Z,98388.81
2018-04-06T12:35:13.762Z,98388.91
2018-04-06T12:37:42.250Z,98378.41
2018-04-06T12:40:10.557Z,98385.63
2018-04-06T12:42:38.913Z,98372.67
2018-04-06T12:45:07.200Z,98371.84
2018-04-06T12:47:35.496Z,98362.71
2018-04-06T12:50:04.609Z,98358.39
2018-04-06T12:52:32.899Z,98354.96
2018-04-06T12:55:01.194Z,98360.86
2018-04-06T12:57:29.530Z,98353.73
2018-04-06T12:59:57.824Z,98354.02
2018-04-06T13:02:26.133Z,98362.30
2018-04-06T13:04:54.479Z,98354.83
2018-04-06T13:07:22.775Z,98349.30
2018-04-06T13:09:51.067Z,98343.91
2018-04-06T13:12:19.407Z,98345.27
2018-04-06T13:14:47.693Z,98346.58
2018-04-06T13:17:15.984Z,98336.61
2018-04-06T13:19:44.336Z,98336.72
2018-04-06T13:22:12.629Z,98331.33
2018-04-06T13:24:40.925Z,98319.29
2018-04-06T13:27:09.273Z,98312.19
2018-04-06T13:29:37.561Z,98328.09
2018-04-06T13:32:05.851Z,98325.24
2018-04-06T13:34:34.177Z,98311.37
2018-04-06T13:37:03.229Z,98312.18
2018-04-06T13:39:31.512Z,98298.04
2018-04-06T13:41:59.829Z,98303.89
2018-04-06T13:44:28.960Z,98309.06
2018-04-06T13:46:57.301Z,98303.00
2018-04-06T13:49:25.589Z,98295.52
2018-04-06T13:51:53.884Z,98286.76
2018-04-06T13:54:22.253Z,98289.53
2018-04-06T13:56:50.633Z,98286.98
2018-04-06T13:59:18.942Z,98286.34
2018-04-06T14:01:47.284Z,98277.11
2018-04-06T14:04:15.588Z,98277.05
2018-04-06T14:06:43.890Z,98279.59
2018-04-06T14:09:12.238Z,98269.56
2018-04-06T14:11:40.536Z,98273.45
2018-04-06T14:14:08.956Z,98266.91
2018-04-06T14:16:38.177Z,98263.23
2018-04-06T14:19:07.321Z,98258.48
2018-04-06T14:21:35.820Z,98260.88
2018-04-06T14:24:05.349Z,98260.48
2018-04-06T14:26:33.662Z,98258.90
2018-04-06T14:29:02.067Z,98250.16
2018-04-06T14:31:30.368Z,98254.44
2018-04-06T14:33:58.660Z,98247.89
2018-04-06T14:36:26.983Z,98239.73
2018-04-06T14:38:55.541Z,98240.91
2018-04-06T14:41:24.764Z,98241.65
2018-04-06T14:43:53.191Z,98239.66
2018-04-06T14:46:21.448Z,98236.89
2018-04-06T14:48:49.735Z,98241.20
2018-04-06T14:51:18.180Z,98237.05
2018-04-06T14:53:46.481Z,98236.04
2018-04-06T14:56:15.447Z,98240.25
2018-04-06T14:58:47.108Z,98233.22
2018-04-06T15:01:15.401Z,98234.76
2018-04-06T15:03:44.321Z,98233.63
2018-04-06T15:06:12.788Z,98230.66
2018-04-06T15:08:41.130Z,98227.09
2018-04-06T15:11:09.905Z,98224.63
2018-04-06T15:13:38.761Z,98216.70
2018-04-06T15:16:07.110Z,98209.19
2018-04-06T15:18:35.821Z,98214.62
2018-04-06T15:21:04.290Z,98214.25
2018-04-06T15:23:32.750Z,98229.12
2018-04-06T15:26:01.040Z,98221.88
2018-04-06T15:28:30.020Z,98205.14
2018-04-06T15:31:00.085Z,98205.82
2018-04-06T15:33:28.628Z,98209.04
2018-04-06T15:35:57.401Z,98210.73
2018-04-06T15:38:25.721Z,98211.03
2018-04-06T15:40:54.773Z,98217.08
2018-04-06T15:43:23.228Z,98211.98
2018-04-06T15:45:51.509Z,98213.92
2018-04-06T15:48:19.808Z,98207.48
2018-04-06T15:50:48.148Z,98207.09
2018-04-06T15:53:16.448Z,98204.20
2018-04-06T15:55:44.751Z,98209.44
2018-04-06T15:58:13.096Z,98202.12
2018-04-06T16:00:41.400Z,98200.82
2018-04-06T16:03:09.731Z,98208.45
2018-04-06T16:05:38.102Z,98205.77
2018-04-06T16:08:06.492Z,98191.93
2018-04-06T16:10:34.788Z,98199.22
2018-04-06T16:13:03.140Z,98192.00
2018-04-06T16:15:32.201Z,98191.59
2018-04-06T16:18:00.492Z,98192.05
2018-04-06T16:20:29.944Z,98193.89
2018-04-06T16:22:59.053Z,98192.14
2018-04-06T16:25:27.360Z,98187.95
2018-04-06T16:27:55.696Z,98189.13
2018-04-06T16:30:23.997Z,98184.98
2018-04-06T16:32:52.440Z,98193.31
2018-04-06T16:35:20.748Z,98188.42
2018-04-06T16:37:49.045Z,98191.22
2018-04-06T16:40:17.381Z,98177.33
2018-04-06T16:42:45.685Z,98180.28
2018-04-06T16:45:13.981Z,98179.26
2018-04-06T16:47:42.327Z,98180.47
2018-04-06T16:50:10.609Z,98182.41
2018-04-06T16:52:38.898Z,98180.61
2018-04-06T16:55:07.217Z,98177.05
2018-04-06T16:57:35.504Z,98174.95
2018-04-06T17:00:03.836Z,98174.34
2018-04-06T17:02:32.134Z,98180.69
2018-04-06T17:05:01.214Z,98167.60
2018-04-06T17:07:29.556Z,98179.91
2018-04-06T17:09:57.856Z,98177.19
2018-04-06T17:12:26.144Z,98172.75
2018-04-06T17:14:54.480Z,98175.70
2018-04-06T17:17:22.777Z,98169.86
2018-04-06T17:19:51.180Z,98174.92
2018-04-06T17:22:19.453Z,98173.81
2018-04-06T17:24:47.746Z,98177.24
2018-04-06T17:27:15.850Z,98181.58
2018-04-06T17:29:44.149Z,98181.03
2018-04-06T17:32:12.452Z,98179.30
2018-04-06T17:34:40.845Z,98190.58
2018-04-06T17:37:10.254Z,98185.00
2018-04-06T17:39:39.734Z,98187.67
2018-04-06T17:42:08.850Z,98185.66
2018-04-06T17:44:37.137Z,98180.05
2018-04-06T17:47:05.425Z,98184.12
2018-04-06T17:49:33.864Z,98188.82
2018-04-06T17:52:02.657Z,98184.95
2018-04-06T17:54:31.129Z,98185.75
2018-04-06T17:56:59.451Z,98192.41
2018-04-06T17:59:27.754Z,98192.90
2018-04-06T18:01:56.055Z,98188.20
2018-04-06T18:04:24.402Z,98191.87
2018-04-06T18:06:52.694Z,98191.87
2018-04-06T18:09:21.010Z,98183.80
2018-04-06T18:11:49.356Z,98179.77
2018-04-06T18:14:17.648Z,98184.88
2018-04-06T18:16:45.953Z,98184.09
2018-04-06T18:19:14.368Z,98194.50
2018-04-06T18:21:42.658Z,98191.86
2018-04-06T18:24:10.960Z,98194.16
2018-04-06T18:26:39.593Z,98191.56
2018-04-06T18:29:07.893Z,98195.42
2018-04-06T18:31:36.201Z,98194.83
2018-04-06T18:34:04.540Z,98193.30
2018-04-06T18:36:32.845Z,98197.90
2018-04-06T18:39:01.137Z,98191.45
2018-04-06T18:41:29.500Z,98199.61
2018-04-06T18:43:57.786Z,98203.20
2018-04-06T18:46:26.328Z,98203.16
2018-04-06T18:48:54.656Z,98206.55
2018-04-06T18:51:22.977Z,98202.37
2018-04-06T18:53:51.264Z,98210.81
2018-04-06T18:56:19.596Z,98206.16
2018-04-06T18:58:47.907Z,98203.00
2018-04-06T19:01:16.980Z,98208.19
2018-04-06T19:03:45.427Z,98201.29
2018-04-06T19:06:14.469Z,98201.28
2018-04-06T19:08:44.381Z,98200.59
2018-04-06T19:11:14.469Z,98197.68
2018-04-06T19:13:42.760Z,98199.48
2018-04-06T19:16:11.064Z,98199.72
2018-04-06T19:18:39.432Z,98203.10
2018-04-06T19:21:07.733Z,98197.52
2018-04-06T19:23:36.126Z,98197.08
2018-04-06T19:26:04.865Z,98194.91
2018-04-06T19:28:33.925Z,98194.03
2018-04-06T19:31:02.258Z,98181.59
2018-04-06T19:33:30.573Z,98192.88
2018-04-06T19:35:59.464Z,98182.81
2018-04-06T19:38:27.967Z,98184.58
2018-04-06T19:40:58.496Z,98182.57
2018-04-06T19:43:27.320Z,98170.86
2018-04-06T19:45:56.673Z,98173.95
2018-04-06T19:48:26.752Z,98172.11
2018-04-06T19:50:55.290Z,98183.97
2018-04-06T19:53:23.585Z,98180.50
2018-04-06T19:55:51.897Z,98177.95
2018-04-06T19:58:20.261Z,98182.53
2018-04-06T20:00:49.330Z,98182.52
2018-04-06T20:03:17.641Z,98174.80
2018-04-06T20:05:45.973Z,98182.53
2018-04-06T20:08:14.296Z,98169.92
2018-04-06T20:10:42.717Z,98176.29
2018-04-06T20:13:11.015Z,98170.52
2018-04-06T20:15:39.301Z,98168.62
2018-04-06T20:18:07.657Z,98164.27
2018-04-06T20:20:35.957Z,98161.97
2018-04-06T20:23:04.249Z,98155.70
2018-04-06T20:25:33.340Z,98155.42
2018-04-06T20:28:02.417Z,98153.65
2018-04-06T20:30:30.728Z,98153.83
2018-04-06T20:32:59.839Z,98159.59
2018-04-06T20:35:28.129Z,98155.19
2018-04-06T20:37:56.446Z,98152.48
2018-04-06T20:40:24.785Z,98150.34
2018-04-06T20:42:53.168Z,98157.16
2018-04-06T20:45:21.473Z,98159.70
2018-04-06T20:47:49.831Z,98162.52
2018-04-06T20:50:18.162Z,98154.69
2018-04-06T20:52:47.227Z,98151.67
2018-04-06T20:55:15.526Z,98157.88
2018-04-06T20:57:44.857Z,98154.72
2018-04-06T21:00:13.151Z,98158.05
2018-04-06T21:02:41.448Z,98156.30
2018-04-06T21:05:09.881Z,98150.70
2018-04-06T21:07:38.186Z,98153.31
2018-04-06T21:10:06.496Z,98147.95
2018-04-06T21:12:34.832Z,98145.74
2018-04-06T21:15:03.129Z,98142.97
2018-04-06T21:17:31.469Z,98136.64
2018-04-06T21:19:59.777Z,98137.53
2018-04-06T21:22:28.121Z,98135.48
2018-04-06T21:24:56.413Z,98135.08
2018-04-06T21:27:25.072Z,98131.89
2018-04-06T21:29:53.652Z,98132.78
2018-04-06T21:32:22.471Z,98124.80
2018-04-06T21:34:52.006Z,98124.08
2018-04-06T21:37:21.456Z,98127.88
2018-04-06T21:39:49.849Z,98123.00
2018-04-06T21:42:18.925Z,98119.86
2018-04-06T21:44:48.238Z,98119.95
2018-04-06T21:47:17.042Z,98120.88
2018-04-06T21:49:45.379Z,98118.80
2018-04-06T21:52:14.445Z,98120.73
2018-04-06T21:54:42.732Z,98119.33
2018-04-06T21:57:11.801Z,98109.92
2018-04-06T21:59:40.177Z,98111.94
2018-04-06T22:02:09.169Z,98105.56
2018-04-06T22:04:37.465Z,98101.51
2018-04-06T22:07:06.565Z,98103.60
2018-04-06T22:09:35.777Z,98104.08
2018-04-06T22:12:04.752Z,98097.16
2018-04-06T22:14:34.942Z,98098.70
2018-04-06T22:17:03.800Z,98093.94
2018-04-06T22:19:32.890Z,98100.11
2018-04-06T22:22:01.902Z,98099.40
2018-04-06T22:24:30.344Z,98092.41
2018-04-06T22:26:59.322Z,98100.50
2018-04-06T22:29:27.719Z,98097.17
2018-04-06T22:31:56.097Z,98086.58
2018-04-06T22:34:24.580Z,98092.62
2018-04-06T22:36:53.573Z,98087.29
2018-04-06T22:39:22.486Z,98082.99
2018-04-06T22:41:50.775Z,98082.36
2018-04-06T22:44:19.116Z,98082.45
2018-04-06T22:46:47.413Z,98085.63
2018-04-06T22:49:16.425Z,98082.43
2018-04-06T22:51:44.864Z,98082.64
2018-04-06T22:54:13.744Z,98082.95
2018-04-06T22:56:42.244Z,98084.34
2018-04-06T22:59:11.081Z,98078.04
2018-04-06T23:01:40.945Z,98072.28
2018-04-06T23:04:09.369Z,98070.39
2018-04-06T23:06:38.541Z,98070.31
2018-04-06T23:09:06.836Z,98061.30
2018-04-06T23:11:35.961Z,98058.48
2018-04-06T23:14:05.244Z,98061.47
2018-04-06T23:16:33.857Z,98056.80
2018-04-06T23:19:02.160Z,98058.77
2018-04-06T23:21:31.444Z,98054.66
2018-04-06T23:23:59.729Z,98053.45
2018-04-06T23:26:28.020Z,98050.06
2018-04-06T23:28:56.861Z,98050.28
2018-04-06T23:31:27.124Z,98051.89
2018-04-06T23:33:56.953Z,98054.70
2018-04-06T23:36:25.236Z,98058.17
2018-04-06T23:38:53.753Z,98056.60
2018-04-06T23:41:22.606Z,98047.21
2018-04-06T23:43:51.373Z,98042.21
2018-04-06T23:46:20.060Z,98041.87
2018-04-06T23:48:48.769Z,98038.23
2018-04-06T23:51:17.633Z,98032.63
2018-04-06T23:53:45.922Z,98034.75
2018-04-06T23:56:14.240Z,98031.89
2018-04-06T23:58:44.145Z,98030.95
